createdAt,value
2019-02-07T00:01:23.142Z,100982.36
2019-02-07T00:04:13.635Z,100984.30
2019-02-07T00:07:04.193Z,101002.66
2019-02-07T00:09:55.151Z,100993.33
2019-02-07T00:12:45.787Z,100987.22
2019-02-07T00:15:36.762Z,100989.89
2019-02-07T00:18:27.371Z,100995.59
2019-02-07T00:21:18.176Z,101005.31
2019-02-07T00:24:08.378Z,100996.72
2019-02-07T00:26:58.466Z,101007.74
2019-02-07T00:29:48.758Z,101000.36
2019-02-07T00:32:39.155Z,101003.37
2019-02-07T00:35:29.639Z,101011.13
2019-02-07T00:38:20.209Z,101034.45
2019-02-07T00:41:10.533Z,101028.67
2019-02-07T00:44:00.958Z,101020.68
2019-02-07T00:46:51.580Z,101024.67
2019-02-07T00:49:41.990Z,101016.52
2019-02-07T00:52:32.149Z,101013.53
2019-02-07T00:55:22.472Z,101010.49
2019-02-07T00:58:12.907Z,101009.71
2019-02-07T01:01:03.042Z,101010.75
2019-02-07T01:03:53.590Z,101012.09
2019-02-07T01:06:43.711Z,101013.64
2019-02-07T01:09:34.262Z,101009.19
2019-02-07T01:12:24.859Z,101010.98
2019-02-07T01:15:16.098Z,101009.02
2019-02-07T01:18:06.465Z,101006.27
2019-02-07T01:20:57.167Z,101009.63
2019-02-07T01:23:47.586Z,101006.41
2019-02-07T01:26:37.788Z,101007.37
2019-02-07T01:29:28.241Z,100999.58
2019-02-07T01:32:18.761Z,101001.41
2019-02-07T01:35:09.183Z,101002.24
2019-02-07T01:37:59.718Z,101000.63
2019-02-07T01:40:50.105Z,101006.64
2019-02-07T01:43:41.586Z,101002.73
2019-02-07T01:46:32.537Z,101005.55
2019-02-07T01:49:22.904Z,101004.53
2019-02-07T01:52:13.436Z,100992.55
2019-02-07T01:55:03.675Z,101006.96
2019-02-07T01:57:54.215Z,101005.25
2019-02-07T02:00:44.867Z,101006.59
2019-02-07T02:03:35.694Z,100996.57
2019-02-07T02:06:26.207Z,100993.22
2019-02-07T02:09:17.046Z,100993.39
2019-02-07T02:12:07.669Z,100997.05
2019-02-07T02:14:58.348Z,100992.91
2019-02-07T02:17:49.151Z,100995.98
2019-02-07T02:20:39.636Z,100990.38
2019-02-07T02:23:30.428Z,100983.34
2019-02-07T02:26:21.044Z,100996.25
2019-02-07T02:29:11.643Z,100987.66
2019-02-07T02:32:01.994Z,100987.22
2019-02-07T02:34:52.359Z,101008.88
2019-02-07T02:37:42.828Z,100993.33
2019-02-07T02:40:33.353Z,100999.43
2019-02-07T02:43:23.777Z,100995.35
2019-02-07T02:46:14.284Z,100991.56
2019-02-07T02:49:04.691Z,101003.71
2019-02-07T02:51:55.167Z,101008.66
2019-02-07T02:54:48.742Z,101008.59
2019-02-07T02:57:39.074Z,101004.89
2019-02-07T03:00:45.466Z,101008.22
2019-02-07T03:04:00.946Z,101013.92
2019-02-07T03:07:10.144Z,101014.38
2019-02-07T03:10:19.688Z,101009.77
2019-02-07T03:13:25.127Z,101006.95
2019-02-07T03:16:46.630Z,101017.31
2019-02-07T03:19:55.951Z,101012.55
2019-02-07T03:23:20.943Z,101014.20
2019-02-07T03:26:35.924Z,101023.10
2019-02-07T03:29:44.278Z,101022.02
2019-02-07T03:33:00.600Z,101027.02
2019-02-07T03:36:07.924Z,101026.10
2019-02-07T03:39:15.804Z,101029.92
2019-02-07T03:42:23.907Z,101025.86
2019-02-07T03:45:31.767Z,101018.12
2019-02-07T03:48:35.884Z,101019.29
2019-02-07T03:51:45.035Z,101024.36
2019-02-07T03:54:51.044Z,101028.59
2019-02-07T03:58:03.491Z,101026.39
2019-02-07T04:01:03.147Z,101027.89
2019-02-07T04:04:06.274Z,101032.05
2019-02-07T04:07:08.729Z,101034.30
2019-02-07T04:10:20.771Z,101041.36
2019-02-07T04:13:24.556Z,101033.37
2019-02-07T04:16:21.193Z,101038.86
2019-02-07T04:19:48.868Z,101039.86
2019-02-07T04:23:00.969Z,101045.89
2019-02-07T04:26:16.025Z,101051.20
2019-02-07T04:29:30.817Z,101055.03
2019-02-07T04:32:39.843Z,101052.61
2019-02-07T04:35:43.583Z,101057.06
2019-02-07T04:38:49.351Z,101037.27
2019-02-07T04:41:50.823Z,101069.12
2019-02-07T04:45:12.107Z,101062.92
2019-02-07T04:48:26.973Z,101058.39
2019-02-07T04:51:39.279Z,101062.92
2019-02-07T04:54:47.002Z,101066.08
2019-02-07T04:58:08.753Z,101066.75
2019-02-07T05:01:23.310Z,101065.75
2019-02-07T05:04:32.310Z,101068.41
2019-02-07T05:07:44.852Z,101079.29
2019-02-07T05:10:52.556Z,101075.76
2019-02-07T05:14:00.637Z,101076.63
2019-02-07T05:17:08.518Z,101081.78
2019-02-07T05:20:10.309Z,101076.45
2019-02-07T05:23:31.897Z,101092.95
2019-02-07T05:26:40.763Z,101089.34
2019-02-07T05:29:56.183Z,101099.69
2019-02-07T05:33:04.163Z,101094.00
2019-02-07T05:36:20.253Z,101100.64
2019-02-07T05:39:28.419Z,101105.96
2019-02-07T05:42:41.600Z,101078.69
2019-02-07T05:45:48.450Z,101077.44
2019-02-07T05:48:54.848Z,101106.01
2019-02-07T05:51:54.845Z,101107.12
2019-02-07T05:55:05.056Z,101110.08
2019-02-07T05:58:05.219Z,101117.83
2019-02-07T06:01:27.903Z,101108.75
2019-02-07T06:04:43.092Z,101119.80
2019-02-07T06:08:04.857Z,101120.71
2019-02-07T06:11:20.668Z,101118.84
2019-02-07T06:14:29.088Z,101118.31
2019-02-07T06:17:50.931Z,101118.47
2019-02-07T06:20:59.200Z,101125.34
2019-02-07T06:24:08.364Z,101127.36
2019-02-07T06:27:21.669Z,101124.40
2019-02-07T06:30:44.522Z,101132.84
2019-02-07T06:33:59.624Z,101139.41
2019-02-07T06:37:18.219Z,101146.66
2019-02-07T06:40:30.632Z,101153.62
2019-02-07T06:43:27.530Z,101148.00
2019-02-07T06:46:35.854Z,101152.06
2019-02-07T06:49:40.987Z,101159.96
2019-02-07T06:52:48.955Z,101152.40
2019-02-07T06:56:07.398Z,101162.87
2019-02-07T06:59:19.413Z,101162.27
2019-02-07T07:02:31.289Z,101162.56
2019-02-07T07:05:43.683Z,101167.89
2019-02-07T07:09:11.171Z,101166.23
2019-02-07T07:12:19.562Z,101166.16
2019-02-07T07:15:35.453Z,101175.00
2019-02-07T07:18:47.691Z,101181.88
2019-02-07T07:21:49.959Z,101177.88
2019-02-07T07:24:58.247Z,101176.07
2019-02-07T07:28:06.085Z,101185.84
2019-02-07T07:31:33.457Z,101176.45
2019-02-07T07:34:48.028Z,101178.34
2019-02-07T07:37:57.102Z,101177.50
2019-02-07T07:41:12.547Z,101182.83
2019-02-07T07:44:11.994Z,101183.70
2019-02-07T07:47:20.844Z,101182.66
2019-02-07T07:50:37.095Z,101190.54
2019-02-07T07:53:58.777Z,101202.66
2019-02-07T07:57:20.259Z,101193.81
2019-02-07T08:00:28.856Z,101189.75
2019-02-07T08:03:26.423Z,101195.70
2019-02-07T08:06:40.193Z,101194.15
2019-02-07T08:10:01.377Z,101213.91
2019-02-07T08:13:00.684Z,101218.08
2019-02-07T08:16:08.350Z,101224.31
2019-02-07T08:19:24.498Z,101217.81
2019-02-07T08:22:32.635Z,101221.66
2019-02-07T08:25:47.640Z,101223.25
2019-02-07T08:28:49.686Z,101217.95
2019-02-07T08:32:04.986Z,101220.00
2019-02-07T08:35:14.712Z,101225.17
2019-02-07T08:38:20.416Z,101217.11
2019-02-07T08:41:26.122Z,101214.79
2019-02-07T08:44:34.414Z,101223.05
2019-02-07T08:47:38.235Z,101220.23
2019-02-07T08:51:02.720Z,101224.84
2019-02-07T08:54:06.629Z,101233.77
2019-02-07T08:57:21.818Z,101232.23
2019-02-07T09:00:46.277Z,101236.55
2019-02-07T09:03:55.963Z,101236.73
2019-02-07T09:07:11.313Z,101236.12
2019-02-07T09:10:24.895Z,101241.44
2019-02-07T09:13:46.328Z,101237.55
2019-02-07T09:16:54.116Z,101240.30
2019-02-07T09:20:02.000Z,101242.73
2019-02-07T09:23:13.969Z,101241.70
2019-02-07T09:26:22.263Z,101237.92
2019-02-07T09:29:23.626Z,101241.03
2019-02-07T09:32:51.436Z,101232.43
2019-02-07T09:36:05.606Z,101225.84
2019-02-07T09:39:27.362Z,101238.39
2019-02-07T09:42:33.439Z,101233.45
2019-02-07T09:45:42.994Z,101223.13
2019-02-07T09:48:51.995Z,101233.45
2019-02-07T09:51:58.522Z,101242.39
2019-02-07T09:55:13.758Z,101242.39
2019-02-07T09:58:29.011Z,101246.85
2019-02-07T10:01:34.408Z,101243.86
2019-02-07T10:04:44.196Z,101239.84
2019-02-07T10:08:03.610Z,101253.42
2019-02-07T10:11:10.662Z,101249.34
2019-02-07T10:14:32.364Z,101242.31
2019-02-07T10:17:47.674Z,101242.03
2019-02-07T10:20:56.906Z,101235.81
2019-02-07T10:24:09.302Z,101233.20
2019-02-07T10:27:17.289Z,101230.54
2019-02-07T10:30:41.865Z,101224.21
2019-02-07T10:34:05.743Z,101227.73
2019-02-07T10:37:15.141Z,101228.73
2019-02-07T10:40:25.119Z,101222.20
2019-02-07T10:43:33.465Z,101216.91
2019-02-07T10:46:52.119Z,101218.34
2019-02-07T10:50:10.893Z,101213.17
2019-02-07T10:53:14.734Z,101215.59
2019-02-07T10:56:23.134Z,101207.41
2019-02-07T10:59:35.088Z,101198.33
2019-02-07T11:02:42.654Z,101213.01
2019-02-07T11:05:54.812Z,101193.47
2019-02-07T11:08:58.354Z,101192.38
2019-02-07T11:12:06.159Z,101195.81
2019-02-07T11:15:15.789Z,101191.45
2019-02-07T11:18:31.222Z,101183.17
2019-02-07T11:21:52.587Z,101184.47
2019-02-07T11:25:16.591Z,101183.23
2019-02-07T11:28:35.012Z,101131.73
2019-02-07T11:31:50.227Z,101183.30
2019-02-07T11:34:51.873Z,101197.00
2019-02-07T11:38:00.046Z,101180.66
2019-02-07T11:40:58.954Z,101186.73
2019-02-07T11:43:57.165Z,101174.86
2019-02-07T11:47:15.804Z,101180.74
2019-02-07T11:50:32.657Z,101191.62
2019-02-07T11:53:48.341Z,101179.60
2019-02-07T11:56:58.449Z,101179.34
2019-02-07T12:00:05.393Z,101182.14
2019-02-07T12:03:13.230Z,101177.77
2019-02-07T12:06:25.548Z,101169.54
2019-02-07T12:09:35.747Z,101169.19
2019-02-07T12:13:03.404Z,101153.95
2019-02-07T12:16:22.019Z,101164.12
2019-02-07T12:19:31.064Z,101149.34
2019-02-07T12:22:41.779Z,101149.46
2019-02-07T12:25:57.347Z,101146.66
2019-02-07T12:29:04.849Z,101147.77
2019-02-07T12:32:22.075Z,101139.46
2019-02-07T12:35:41.219Z,101133.05
2019-02-07T12:39:05.716Z,101146.13
2019-02-07T12:42:07.675Z,101149.91
2019-02-07T12:45:15.753Z,101143.88
2019-02-07T12:48:19.331Z,101140.27
2019-02-07T12:51:30.463Z,101139.17
2019-02-07T12:54:39.485Z,101138.37
2019-02-07T12:57:47.249Z,101135.63
2019-02-07T13:00:59.993Z,101136.88
2019-02-07T13:04:09.197Z,101141.81
2019-02-07T13:07:17.249Z,101134.38
2019-02-07T13:10:33.718Z,101142.53
2019-02-07T13:13:45.749Z,101134.55
2019-02-07T13:17:13.228Z,101139.88
2019-02-07T13:20:36.666Z,101145.34
2019-02-07T13:23:44.209Z,101137.35
2019-02-07T13:26:59.592Z,101139.09
2019-02-07T13:30:20.960Z,101145.42
2019-02-07T13:33:39.191Z,101138.93
2019-02-07T13:36:48.426Z,101110.69
2019-02-07T13:39:57.303Z,101141.84
2019-02-07T13:43:05.716Z,101134.78
2019-02-07T13:46:13.729Z,101134.16
2019-02-07T13:49:31.801Z,101135.02
2019-02-07T13:52:40.132Z,101141.51
2019-02-07T13:55:55.140Z,101126.66
2019-02-07T13:59:07.298Z,101126.66
2019-02-07T14:02:18.188Z,101122.09
2019-02-07T14:05:42.689Z,101124.05
2019-02-07T14:08:50.451Z,101126.95
2019-02-07T14:12:11.683Z,101117.72
2019-02-07T14:15:20.955Z,101119.30
2019-02-07T14:18:26.297Z,101109.39
2019-02-07T14:21:48.090Z,101109.17
2019-02-07T14:25:06.102Z,101112.83
2019-02-07T14:28:15.451Z,101110.97
2019-02-07T14:31:33.695Z,101105.73
2019-02-07T14:34:58.070Z,101102.81
2019-02-07T14:38:06.068Z,101097.56
2019-02-07T14:41:15.544Z,101102.67
2019-02-07T14:44:17.982Z,101097.38
2019-02-07T14:47:08.139Z,101093.38
2019-02-07T14:49:58.711Z,101097.99
2019-02-07T14:52:48.824Z,101091.72
2019-02-07T14:55:39.252Z,101087.39
2019-02-07T14:58:29.712Z,101093.12
2019-02-07T15:01:20.004Z,101091.72
2019-02-07T15:04:10.741Z,101094.02
2019-02-07T15:07:01.186Z,101091.27
2019-02-07T15:09:52.208Z,101095.63
2019-02-07T15:12:42.722Z,101089.77
2019-02-07T15:15:33.172Z,101084.37
2019-02-07T15:18:23.354Z,101090.31
2019-02-07T15:21:13.778Z,101085.94
2019-02-07T15:24:04.183Z,101078.42
2019-02-07T15:26:54.987Z,101078.76
2019-02-07T15:29:46.427Z,101082.42
2019-02-07T15:32:37.103Z,101076.08
2019-02-07T15:35:30.975Z,101079.37
2019-02-07T15:38:21.819Z,101087.41
2019-02-07T15:41:12.125Z,101073.36
2019-02-07T15:44:02.997Z,101080.55
2019-02-07T15:46:53.521Z,101078.59
2019-02-07T15:49:43.792Z,101080.09
2019-02-07T15:52:34.367Z,101088.45
2019-02-07T15:55:25.043Z,101092.98
2019-02-07T15:58:15.589Z,101092.73
2019-02-07T16:01:14.561Z,101093.39
2019-02-07T16:04:17.718Z,101085.88
2019-02-07T16:07:08.364Z,101084.63
2019-02-07T16:09:58.854Z,101085.80
2019-02-07T16:12:49.554Z,101089.70
2019-02-07T16:15:39.932Z,101088.13
2019-02-07T16:18:30.833Z,101091.27
2019-02-07T16:21:21.183Z,101093.77
2019-02-07T16:24:11.647Z,101092.19
2019-02-07T16:27:02.096Z,101093.83
2019-02-07T16:29:52.649Z,101096.50
2019-02-07T16:32:43.032Z,101089.13
2019-02-07T16:35:33.486Z,101096.88
2019-02-07T16:38:24.069Z,101100.70
2019-02-07T16:41:14.363Z,101108.14
2019-02-07T16:44:04.723Z,101107.77
2019-02-07T16:46:55.407Z,101106.19
2019-02-07T16:49:45.852Z,101108.14
2019-02-07T16:52:36.231Z,101101.27
2019-02-07T16:55:26.502Z,101107.84
2019-02-07T16:58:17.829Z,101109.25
2019-02-07T17:01:08.447Z,101109.38
2019-02-07T17:03:59.315Z,101111.83
2019-02-07T17:06:49.773Z,101109.63
2019-02-07T17:09:42.902Z,101119.48
2019-02-07T17:12:33.406Z,101116.44
2019-02-07T17:15:23.855Z,101126.38
2019-02-07T17:18:14.419Z,101120.02
2019-02-07T17:21:11.809Z,101127.70
2019-02-07T17:23:58.844Z,101127.28
2019-02-07T17:26:49.629Z,101113.94
2019-02-07T17:29:40.241Z,101123.25
2019-02-07T17:32:30.726Z,101118.05
2019-02-07T17:35:21.130Z,101128.16
2019-02-07T17:38:11.518Z,101124.16
2019-02-07T17:41:01.976Z,101126.36
2019-02-07T17:43:52.479Z,101119.46
2019-02-07T17:46:42.606Z,101113.43
2019-02-07T17:49:32.759Z,101108.75
2019-02-07T17:52:23.140Z,101113.94
2019-02-07T17:55:16.247Z,101115.80
2019-02-07T17:58:07.300Z,101112.61
2019-02-07T18:01:02.212Z,101124.86
2019-02-07T18:03:52.830Z,101122.05
2019-02-07T18:06:43.240Z,101119.88
2019-02-07T18:09:33.495Z,101127.67
2019-02-07T18:12:24.083Z,101101.27
2019-02-07T18:15:14.709Z,101133.78
2019-02-07T18:18:05.739Z,101131.66
2019-02-07T18:20:55.826Z,101137.88
2019-02-07T18:23:45.962Z,101139.56
2019-02-07T18:26:36.369Z,101136.55
2019-02-07T18:29:26.815Z,101147.10
2019-02-07T18:32:17.081Z,101143.41
2019-02-07T18:35:07.870Z,101139.96
2019-02-07T18:37:58.829Z,101140.98
2019-02-07T18:40:49.407Z,101145.87
2019-02-07T18:43:40.010Z,101149.86
2019-02-07T18:46:30.456Z,101152.40
2019-02-07T18:49:20.969Z,101157.41
2019-02-07T18:52:16.046Z,101153.03
2019-02-07T18:55:07.760Z,101144.42
2019-02-07T18:57:58.177Z,101162.72
2019-02-07T19:00:48.401Z,101150.50
2019-02-07T19:03:38.624Z,101149.27
2019-02-07T19:06:29.227Z,101152.50
2019-02-07T19:09:19.496Z,101156.61
2019-02-07T19:12:10.021Z,101155.77
2019-02-07T19:15:00.634Z,101158.83
2019-02-07T19:17:50.991Z,101156.25
2019-02-07T19:20:41.266Z,101157.66
2019-02-07T19:23:31.806Z,101152.64
2019-02-07T19:26:22.683Z,101155.80
2019-02-07T19:29:13.301Z,101154.28
2019-02-07T19:32:03.623Z,101157.66
2019-02-07T19:34:53.727Z,101159.15
2019-02-07T19:37:43.888Z,101164.84
2019-02-07T19:40:34.232Z,101162.72
2019-02-07T19:43:24.685Z,101167.25
2019-02-07T19:46:14.943Z,101157.88
2019-02-07T19:49:07.051Z,101155.45
2019-02-07T19:52:07.690Z,101155.00
2019-02-07T19:54:49.299Z,101164.95
2019-02-07T19:57:39.462Z,101156.11
2019-02-07T20:00:31.246Z,101141.27
2019-02-07T20:03:21.693Z,101159.47
2019-02-07T20:06:12.346Z,101147.44
2019-02-07T20:09:03.879Z,101151.33
2019-02-07T20:11:55.498Z,101152.98
2019-02-07T20:14:46.107Z,101153.83
2019-02-07T20:17:36.851Z,101148.25
2019-02-07T20:20:26.988Z,101149.42
2019-02-07T20:23:17.143Z,101153.14
2019-02-07T20:26:07.566Z,101149.05
2019-02-07T20:28:58.027Z,101152.03
2019-02-07T20:31:51.957Z,101152.44
2019-02-07T20:34:42.470Z,101155.38
2019-02-07T20:37:33.030Z,101151.65
2019-02-07T20:40:25.661Z,101149.19
2019-02-07T20:43:15.949Z,101156.17
2019-02-07T20:46:06.528Z,101148.45
2019-02-07T20:48:56.624Z,101150.48
2019-02-07T20:51:47.186Z,101147.50
2019-02-07T20:54:37.782Z,101144.90
2019-02-07T20:57:28.230Z,101147.41
2019-02-07T21:00:21.944Z,101144.66
2019-02-07T21:03:12.655Z,101147.12
2019-02-07T21:06:02.871Z,101144.76
2019-02-07T21:08:54.882Z,101140.75
2019-02-07T21:11:45.321Z,101133.82
2019-02-07T21:14:36.129Z,101132.62
2019-02-07T21:17:26.402Z,101135.59
2019-02-07T21:20:19.220Z,101141.43
2019-02-07T21:23:09.433Z,101138.31
2019-02-07T21:25:59.585Z,101140.44
2019-02-07T21:28:49.798Z,101136.03
2019-02-07T21:31:40.254Z,101137.77
2019-02-07T21:34:30.438Z,101137.54
2019-02-07T21:37:20.946Z,101134.34
2019-02-07T21:40:13.414Z,101132.55
2019-02-07T21:43:03.966Z,101138.00
2019-02-07T21:45:54.581Z,101135.34
2019-02-07T21:48:45.042Z,101143.31
2019-02-07T21:51:35.553Z,101143.25
2019-02-07T21:54:26.002Z,101138.37
2019-02-07T21:57:16.357Z,101134.13
2019-02-07T22:00:10.445Z,101114.00
2019-02-07T22:03:00.800Z,101134.99
2019-02-07T22:05:51.309Z,101137.40
2019-02-07T22:08:41.691Z,101132.16
2019-02-07T22:11:32.198Z,101131.66
2019-02-07T22:14:22.331Z,101128.11
2019-02-07T22:17:12.978Z,101130.23
2019-02-07T22:20:03.507Z,101129.44
2019-02-07T22:22:53.988Z,101124.81
2019-02-07T22:25:44.534Z,101119.83
2019-02-07T22:28:35.139Z,101115.08
2019-02-07T22:31:25.496Z,101126.25
2019-02-07T22:34:15.936Z,101118.42
2019-02-07T22:37:06.106Z,101116.45
2019-02-07T22:39:56.581Z,101117.17
2019-02-07T22:42:48.155Z,101119.20
2019-02-07T22:45:38.780Z,101122.09
2019-02-07T22:48:29.250Z,101117.58
2019-02-07T22:51:19.872Z,101112.34
2019-02-07T22:54:10.421Z,101114.66
2019-02-07T22:57:01.119Z,101108.50
2019-02-07T22:59:51.797Z,101102.39
2019-02-07T23:02:42.040Z,101104.64
2019-02-07T23:05:32.358Z,101101.19
2019-02-07T23:08:23.078Z,101102.52
2019-02-07T23:11:13.506Z,101111.44
2019-02-07T23:14:04.053Z,101107.78
2019-02-07T23:16:54.389Z,101089.53
2019-02-07T23:19:44.727Z,101106.46
2019-02-07T23:22:35.371Z,101104.11
2019-02-07T23:25:26.228Z,101106.77
2019-02-07T23:28:16.672Z,101100.53
2019-02-07T23:31:08.921Z,101097.00
2019-02-07T23:33:59.606Z,101096.13
2019-02-07T23:36:50.239Z,101095.22
2019-02-07T23:39:40.383Z,101096.92
2019-02-07T23:42:30.601Z,101106.86
2019-02-07T23:45:21.096Z,101099.89
2019-02-07T23:48:11.539Z,101107.30
2019-02-07T23:51:02.044Z,101106.81
2019-02-07T23:53:52.457Z,101110.41
2019-02-07T23:56:42.811Z,101104.16
2019-02-07T23:59:33.136Z,101111.67
